createdAt,value
2023-01-17T00:00:19.216Z,20.35
2023-01-17T00:03:23.536Z,18.23
2023-01-17T00:06:45.619Z,17.75
2023-01-17T00:09:57.105Z,19.73
2023-01-17T00:13:03.375Z,21.95
2023-01-17T00:16:07.487Z,20.27
2023-01-17T00:19:29.535Z,23.00
2023-01-17T00:22:52.203Z,20.40
2023-01-17T00:26:04.969Z,19.17
2023-01-17T00:29:08.629Z,18.77
2023-01-17T00:32:11.761Z,18.37
2023-01-17T00:35:15.479Z,18.57
2023-01-17T00:38:21.733Z,17.62
2023-01-17T00:41:25.224Z,18.25
2023-01-17T00:44:47.215Z,19.23
2023-01-17T00:48:09.420Z,19.23
2023-01-17T00:51:31.305Z,18.30
2023-01-17T00:54:53.617Z,17.23
2023-01-17T00:58:15.763Z,17.07
2023-01-17T01:01:39.037Z,17.25
2023-01-17T01:05:00.765Z,20.08
2023-01-17T01:08:22.983Z,17.83
2023-01-17T01:11:46.049Z,18.65
2023-01-17T01:15:07.932Z,18.48
2023-01-17T01:18:30.977Z,18.00
2023-01-17T01:21:53.565Z,19.67
2023-01-17T01:25:15.224Z,19.37
2023-01-17T01:28:37.211Z,19.08
2023-01-17T01:31:59.968Z,19.40
2023-01-17T01:35:06.709Z,18.65
2023-01-17T01:38:13.219Z,18.58
2023-01-17T01:41:24.728Z,19.23
2023-01-17T01:44:51.854Z,18.20
2023-01-17T01:48:12.858Z,18.70
2023-01-17T01:51:24.231Z,19.05
2023-01-17T01:54:35.844Z,20.00
2023-01-17T01:57:43.725Z,19.77
2023-01-17T02:00:48.028Z,18.65
2023-01-17T02:03:52.751Z,19.50
2023-01-17T02:07:11.895Z,19.30
2023-01-17T02:10:17.824Z,17.98
2023-01-17T02:13:50.037Z,19.60
2023-01-17T02:17:28.024Z,19.77
2023-01-17T02:21:48.011Z,18.90
2023-01-17T02:25:58.188Z,20.33
2023-01-17T02:29:39.389Z,22.02
2023-01-17T02:33:07.273Z,20.37
2023-01-17T02:36:13.623Z,22.15
2023-01-17T02:39:28.923Z,22.00
2023-01-17T02:42:43.015Z,20.77
2023-01-17T02:45:49.153Z,20.35
2023-01-17T02:48:57.126Z,19.90
2023-01-17T02:52:12.928Z,18.58
2023-01-17T02:55:37.189Z,19.00
2023-01-17T02:59:16.047Z,19.62
2023-01-17T03:02:27.282Z,17.20
2023-01-17T03:05:44.323Z,19.23
2023-01-17T03:08:49.908Z,20.05
2023-01-17T03:11:54.098Z,18.87
2023-01-17T03:14:57.682Z,21.40
2023-01-17T03:18:07.875Z,21.08
2023-01-17T03:21:13.979Z,19.70
2023-01-17T03:24:17.728Z,19.17
2023-01-17T03:27:24.195Z,18.40
2023-01-17T03:30:28.086Z,19.50
2023-01-17T03:33:31.499Z,18.60
2023-01-17T03:36:37.832Z,20.17
2023-01-17T03:39:43.500Z,18.30
2023-01-17T03:42:46.959Z,18.77
2023-01-17T03:45:52.248Z,19.55
2023-01-17T03:48:55.939Z,17.73
2023-01-17T03:51:59.061Z,16.67
2023-01-17T03:55:02.858Z,17.52
2023-01-17T03:58:06.150Z,17.65
2023-01-17T04:01:10.121Z,17.30
2023-01-17T04:04:15.043Z,17.20
2023-01-17T04:07:18.375Z,17.58
2023-01-17T04:10:24.622Z,16.98
2023-01-17T04:13:29.776Z,16.80
2023-01-17T04:16:37.584Z,16.55
2023-01-17T04:19:43.649Z,15.18
2023-01-17T04:22:47.159Z,17.53
2023-01-17T04:25:51.021Z,17.10
2023-01-17T04:28:54.413Z,17.12
2023-01-17T04:32:01.917Z,16.02
2023-01-17T04:35:07.292Z,16.10
2023-01-17T04:38:10.595Z,18.55
2023-01-17T04:41:15.247Z,16.52
2023-01-17T04:44:19.123Z,16.37
2023-01-17T04:47:22.728Z,16.02
2023-01-17T04:50:26.187Z,17.35
2023-01-17T04:53:29.816Z,15.97
2023-01-17T04:56:33.026Z,17.00
2023-01-17T04:59:36.727Z,19.80
2023-01-17T05:02:40.453Z,34.88
2023-01-17T05:05:44.748Z,23.83
2023-01-17T05:08:48.379Z,25.25
2023-01-17T05:11:55.881Z,22.35
2023-01-17T05:14:59.310Z,18.07
2023-01-17T05:18:16.446Z,16.92
2023-01-17T05:21:22.924Z,15.88
2023-01-17T05:24:27.094Z,14.33
2023-01-17T05:27:33.506Z,13.65
2023-01-17T05:30:37.292Z,11.88
2023-01-17T05:33:40.810Z,12.85
2023-01-17T05:36:44.556Z,12.23
2023-01-17T05:39:48.240Z,11.88
2023-01-17T05:42:56.447Z,13.40
2023-01-17T05:45:59.881Z,12.83
2023-01-17T05:49:03.612Z,12.52
2023-01-17T05:52:10.013Z,12.10
2023-01-17T05:55:15.802Z,10.63
2023-01-17T05:58:23.248Z,10.93
2023-01-17T06:01:29.693Z,12.05
2023-01-17T06:04:33.575Z,13.55
2023-01-17T06:07:39.976Z,12.93
2023-01-17T06:10:43.922Z,12.13
2023-01-17T06:13:49.051Z,11.52
2023-01-17T06:16:52.791Z,8.37
2023-01-17T06:19:56.074Z,11.18
2023-01-17T06:23:06.428Z,10.70
2023-01-17T06:26:09.974Z,10.17
2023-01-17T06:29:13.823Z,9.43
2023-01-17T06:32:20.063Z,8.30
2023-01-17T06:35:23.608Z,8.85
2023-01-17T06:38:27.955Z,8.05
2023-01-17T06:41:31.977Z,8.43
2023-01-17T06:44:35.254Z,9.15
2023-01-17T06:47:40.059Z,9.43
2023-01-17T06:50:44.679Z,7.03
2023-01-17T06:53:49.651Z,8.57
2023-01-17T06:56:52.999Z,8.10
2023-01-17T06:59:57.533Z,7.20
2023-01-17T07:03:00.930Z,6.97
2023-01-17T07:06:05.596Z,7.12
2023-01-17T07:09:08.823Z,6.85
2023-01-17T07:12:12.311Z,6.37
2023-01-17T07:15:15.605Z,6.28
2023-01-17T07:18:23.213Z,7.20
2023-01-17T07:21:26.418Z,5.75
2023-01-17T07:24:29.982Z,4.53
2023-01-17T07:27:33.724Z,4.53
2023-01-17T07:30:37.197Z,3.78
2023-01-17T07:33:40.930Z,3.55
2023-01-17T07:36:44.391Z,3.80
2023-01-17T07:39:47.490Z,3.80
2023-01-17T07:42:51.026Z,3.92
2023-01-17T07:45:55.280Z,4.10
2023-01-17T07:49:00.250Z,3.73
2023-01-17T07:52:04.174Z,2.90
2023-01-17T07:55:09.650Z,3.72
2023-01-17T07:58:15.053Z,3.40
2023-01-17T08:01:19.444Z,3.10
2023-01-17T08:04:29.157Z,3.20
2023-01-17T08:07:32.233Z,3.95
2023-01-17T08:10:36.529Z,2.62
2023-01-17T08:13:41.913Z,3.00
2023-01-17T08:16:46.973Z,3.03
2023-01-17T08:19:52.335Z,3.70
2023-01-17T08:22:57.124Z,5.97
2023-01-17T08:26:01.404Z,3.42
2023-01-17T08:29:05.697Z,3.23
2023-01-17T08:32:08.952Z,3.55
2023-01-17T08:35:13.225Z,4.00
2023-01-17T08:38:16.312Z,2.92
2023-01-17T08:41:21.083Z,3.15
2023-01-17T08:44:24.410Z,2.40
2023-01-17T08:47:28.145Z,1.77
2023-01-17T08:50:31.301Z,2.20
2023-01-17T08:53:34.856Z,2.03
2023-01-17T08:56:37.946Z,1.77
2023-01-17T08:59:42.633Z,1.37
2023-01-17T09:02:45.844Z,1.13
2023-01-17T09:05:50.421Z,1.50
2023-01-17T09:08:55.456Z,1.58
2023-01-17T09:11:59.331Z,1.70
2023-01-17T09:15:03.305Z,3.60
2023-01-17T09:18:06.838Z,2.50
2023-01-17T09:21:13.823Z,2.10
2023-01-17T09:24:17.460Z,2.10
2023-01-17T09:27:21.094Z,1.77
2023-01-17T09:30:25.038Z,2.12
2023-01-17T09:33:28.656Z,2.80
2023-01-17T09:36:34.148Z,0.90
2023-01-17T09:39:37.196Z,1.33
2023-01-17T09:42:41.546Z,0.90
2023-01-17T09:45:45.146Z,1.17
2023-01-17T09:48:56.578Z,1.40
2023-01-17T09:52:00.334Z,0.80
2023-01-17T09:55:07.294Z,1.10
2023-01-17T09:58:19.680Z,0.98
2023-01-17T10:01:35.944Z,0.77
2023-01-17T10:04:57.908Z,1.00
2023-01-17T10:08:19.247Z,1.00
2023-01-17T10:11:31.939Z,1.02
2023-01-17T10:14:56.993Z,0.68
2023-01-17T10:18:29.594Z,0.90
2023-01-17T10:21:51.953Z,1.00
2023-01-17T10:25:17.426Z,2.70
2023-01-17T10:28:23.315Z,1.67
2023-01-17T10:31:31.481Z,1.40
2023-01-17T10:34:45.801Z,0.67
2023-01-17T10:37:52.378Z,1.50
2023-01-17T10:41:04.795Z,1.30
2023-01-17T10:44:39.689Z,2.25
2023-01-17T10:47:48.617Z,2.20
2023-01-17T10:51:02.753Z,2.00
2023-01-17T10:54:21.218Z,2.35
2023-01-17T10:57:27.441Z,3.12
2023-01-17T11:00:45.587Z,2.00
2023-01-17T11:03:51.291Z,2.23
2023-01-17T11:07:24.788Z,1.85
2023-01-17T11:10:46.667Z,2.03
2023-01-17T11:13:52.284Z,2.22
2023-01-17T11:17:01.412Z,2.20
2023-01-17T11:20:24.691Z,2.15
2023-01-17T11:23:33.501Z,1.55
2023-01-17T11:26:38.836Z,4.28
2023-01-17T11:29:42.306Z,2.47
2023-01-17T11:32:58.377Z,1.83
2023-01-17T11:36:01.788Z,2.30
2023-01-17T11:39:07.154Z,2.03
2023-01-17T11:42:35.533Z,2.00
2023-01-17T11:45:40.814Z,2.08
2023-01-17T11:48:51.074Z,1.73
2023-01-17T11:51:56.343Z,2.20
2023-01-17T11:54:59.976Z,2.35
2023-01-17T11:58:03.848Z,2.12
2023-01-17T12:01:32.807Z,2.35
2023-01-17T12:04:43.573Z,2.08
2023-01-17T12:08:02.188Z,2.10
2023-01-17T12:11:08.548Z,1.90
2023-01-17T12:14:29.360Z,2.12
2023-01-17T12:17:56.116Z,2.20
2023-01-17T12:21:25.364Z,2.10
2023-01-17T12:24:58.611Z,1.70
2023-01-17T12:28:04.688Z,1.65
2023-01-17T12:31:15.421Z,2.10
2023-01-17T12:34:25.781Z,2.00
2023-01-17T12:37:34.650Z,2.03
2023-01-17T12:40:44.445Z,1.83
2023-01-17T12:43:48.625Z,1.40
2023-01-17T12:47:02.455Z,1.80
2023-01-17T12:50:24.707Z,1.17
2023-01-17T12:53:39.533Z,1.50
2023-01-17T12:56:52.975Z,1.60
2023-01-17T13:00:06.051Z,4.32
2023-01-17T13:03:24.074Z,2.80
2023-01-17T13:06:59.796Z,1.90
2023-01-17T13:10:29.744Z,1.80
2023-01-17T13:13:35.795Z,1.70
2023-01-17T13:16:45.338Z,2.12
2023-01-17T13:20:08.840Z,2.00
2023-01-17T13:23:23.283Z,2.40
2023-01-17T13:26:29.268Z,3.92
2023-01-17T13:29:55.850Z,3.45
2023-01-17T13:33:36.463Z,3.08
2023-01-17T13:36:51.611Z,2.50
2023-01-17T13:40:34.321Z,3.00
2023-01-17T13:43:40.840Z,3.05
2023-01-17T13:47:08.315Z,4.20
2023-01-17T13:50:40.950Z,2.97
2023-01-17T13:53:44.033Z,2.90
2023-01-17T13:56:47.399Z,3.47
2023-01-17T13:59:50.787Z,3.57
2023-01-17T14:02:55.629Z,3.15
2023-01-17T14:05:59.198Z,2.55
2023-01-17T14:09:08.303Z,3.08
2023-01-17T14:12:11.997Z,3.23
2023-01-17T14:15:23.673Z,2.83
2023-01-17T14:18:37.700Z,5.45
2023-01-17T14:21:41.392Z,6.93
2023-01-17T14:25:14.994Z,6.93
2023-01-17T14:28:27.381Z,7.22
2023-01-17T14:31:30.868Z,7.35
2023-01-17T14:34:34.873Z,6.75
2023-01-17T14:37:44.843Z,4.50
2023-01-17T14:41:14.197Z,3.37
2023-01-17T14:44:18.699Z,2.85
2023-01-17T14:47:22.612Z,2.95
2023-01-17T14:50:42.961Z,3.13
2023-01-17T14:53:57.726Z,3.30
2023-01-17T14:57:28.105Z,9.35
2023-01-17T15:00:35.249Z,22.05
2023-01-17T15:03:53.662Z,27.30
2023-01-17T15:06:58.786Z,10.50
2023-01-17T15:10:03.999Z,8.55
2023-01-17T15:13:10.338Z,12.40
2023-01-17T15:16:24.193Z,18.67
2023-01-17T15:19:27.412Z,14.48
2023-01-17T15:22:31.178Z,12.80
2023-01-17T15:25:35.087Z,15.43
2023-01-17T15:28:38.947Z,50.78
2023-01-17T15:31:52.431Z,18.10
2023-01-17T15:34:57.116Z,8.53
2023-01-17T15:38:01.429Z,6.12
2023-01-17T15:41:14.889Z,6.87
2023-01-17T15:44:42.645Z,11.30
2023-01-17T15:47:51.400Z,9.85
2023-01-17T15:51:00.809Z,7.53
2023-01-17T15:54:34.558Z,8.40
2023-01-17T15:57:38.377Z,7.57
2023-01-17T16:00:44.391Z,6.97
2023-01-17T16:03:55.764Z,6.47
2023-01-17T16:07:21.971Z,6.75
2023-01-17T16:10:28.889Z,10.35
2023-01-17T16:13:38.778Z,12.32
2023-01-17T16:16:51.177Z,14.50
2023-01-17T16:19:55.843Z,11.50
2023-01-17T16:23:00.547Z,14.20
2023-01-17T16:26:05.430Z,10.90
2023-01-17T16:29:09.468Z,13.13
2023-01-17T16:32:15.594Z,12.13
2023-01-17T16:35:24.289Z,10.30
2023-01-17T16:38:27.852Z,7.90
2023-01-17T16:41:31.992Z,9.17
2023-01-17T16:44:37.580Z,8.70
2023-01-17T16:47:42.460Z,8.60
2023-01-17T16:50:52.385Z,8.57
2023-01-17T16:53:58.367Z,8.57
2023-01-17T16:57:01.690Z,7.10
2023-01-17T17:00:07.483Z,6.45
2023-01-17T17:03:21.377Z,6.00
2023-01-17T17:06:24.836Z,6.00
2023-01-17T17:09:28.304Z,5.87
2023-01-17T17:12:32.623Z,5.35
2023-01-17T17:15:42.308Z,5.70
2023-01-17T17:18:47.991Z,5.65
2023-01-17T17:21:52.860Z,5.80
2023-01-17T17:24:56.488Z,4.80
2023-01-17T17:28:00.005Z,5.22
2023-01-17T17:31:11.259Z,5.30
2023-01-17T17:34:15.926Z,4.85
2023-01-17T17:37:22.623Z,5.72
2023-01-17T17:40:26.834Z,5.55
2023-01-17T17:43:36.426Z,6.37
2023-01-17T17:46:40.294Z,6.47
2023-01-17T17:49:44.270Z,6.65
2023-01-17T17:52:49.600Z,6.45
2023-01-17T17:55:54.511Z,6.87
2023-01-17T17:59:01.202Z,6.25
2023-01-17T18:02:11.259Z,11.68
2023-01-17T18:05:16.240Z,9.95
2023-01-17T18:08:21.999Z,12.68
2023-01-17T18:11:29.773Z,7.87
2023-01-17T18:14:34.319Z,6.60
2023-01-17T18:17:39.039Z,6.40
2023-01-17T18:20:43.799Z,7.45
2023-01-17T18:23:48.103Z,6.68
2023-01-17T18:26:54.835Z,8.70
2023-01-17T18:30:00.686Z,7.00
2023-01-17T18:33:06.171Z,7.37
2023-01-17T18:36:13.169Z,6.95
2023-01-17T18:39:22.563Z,5.00
2023-01-17T18:42:28.674Z,7.07
2023-01-17T18:45:33.185Z,6.32
2023-01-17T18:48:39.418Z,6.30
2023-01-17T18:51:47.151Z,5.62
2023-01-17T18:54:51.830Z,4.97
2023-01-17T18:57:56.710Z,8.73
2023-01-17T19:01:16.921Z,6.07
2023-01-17T19:04:22.159Z,3.40
2023-01-17T19:07:30.088Z,3.58
2023-01-17T19:10:35.328Z,2.75
2023-01-17T19:13:42.463Z,2.72
2023-01-17T19:16:46.983Z,2.15
2023-01-17T19:19:52.249Z,1.90
2023-01-17T19:22:57.669Z,2.78
2023-01-17T19:26:04.170Z,1.90
2023-01-17T19:29:09.472Z,1.83
2023-01-17T19:32:14.858Z,2.35
2023-01-17T19:35:23.606Z,2.70
2023-01-17T19:38:31.414Z,3.40
2023-01-17T19:41:39.100Z,1.80
2023-01-17T19:44:44.318Z,3.72
2023-01-17T19:47:49.742Z,3.00
2023-01-17T19:50:55.651Z,2.20
2023-01-17T19:54:01.895Z,6.05
2023-01-17T19:57:06.648Z,3.80
2023-01-17T20:00:13.840Z,4.43
2023-01-17T20:03:20.091Z,3.00
2023-01-17T20:06:31.181Z,1.70
2023-01-17T20:09:36.036Z,2.00
2023-01-17T20:12:41.345Z,2.33
2023-01-17T20:15:45.966Z,2.30
2023-01-17T20:18:51.426Z,2.83
2023-01-17T20:21:56.151Z,2.60
2023-01-17T20:25:01.219Z,3.12
2023-01-17T20:28:06.262Z,2.62
2023-01-17T20:31:13.478Z,3.00
2023-01-17T20:34:20.170Z,3.10
2023-01-17T20:37:26.343Z,3.15
2023-01-17T20:40:31.131Z,2.80
2023-01-17T20:43:35.985Z,2.60
2023-01-17T20:46:43.461Z,3.85
2023-01-17T20:49:50.199Z,1.80
2023-01-17T20:52:56.562Z,2.87
2023-01-17T20:56:01.627Z,2.05
2023-01-17T20:59:12.154Z,1.87
2023-01-17T21:02:18.371Z,1.83
2023-01-17T21:05:22.477Z,1.90
2023-01-17T21:08:26.028Z,2.00
2023-01-17T21:11:31.038Z,2.03
2023-01-17T21:14:37.733Z,1.75
2023-01-17T21:17:43.408Z,2.00
2023-01-17T21:20:50.637Z,1.30
2023-01-17T21:23:57.498Z,1.10
2023-01-17T21:27:01.598Z,2.37
2023-01-17T21:30:05.328Z,1.85
2023-01-17T21:33:09.420Z,1.80
2023-01-17T21:36:16.522Z,1.58
2023-01-17T21:39:20.317Z,2.10
2023-01-17T21:42:26.592Z,2.15
2023-01-17T21:45:32.260Z,2.00
2023-01-17T21:48:35.312Z,1.50
2023-01-17T21:51:55.378Z,2.08
2023-01-17T21:55:20.220Z,2.20
2023-01-17T21:58:42.762Z,1.80
2023-01-17T22:01:46.206Z,2.20
2023-01-17T22:04:50.053Z,1.77
2023-01-17T22:08:11.813Z,1.23
2023-01-17T22:11:17.949Z,1.40
2023-01-17T22:14:21.085Z,1.58
2023-01-17T22:17:24.796Z,1.73
2023-01-17T22:20:28.227Z,1.52
2023-01-17T22:23:34.410Z,1.65
2023-01-17T22:26:41.807Z,1.60
2023-01-17T22:29:48.143Z,1.50
2023-01-17T22:32:51.331Z,1.40
2023-01-17T22:35:59.028Z,1.80
2023-01-17T22:39:05.181Z,1.65
2023-01-17T22:42:08.862Z,2.05
2023-01-17T22:45:12.466Z,1.70
2023-01-17T22:48:16.790Z,1.87
2023-01-17T22:51:22.671Z,1.60
2023-01-17T22:54:27.441Z,1.50
2023-01-17T22:57:30.578Z,1.60
2023-01-17T23:00:35.837Z,1.40
2023-01-17T23:03:42.346Z,1.50
2023-01-17T23:06:46.637Z,1.30
2023-01-17T23:09:49.785Z,1.27
2023-01-17T23:12:53.287Z,1.30
2023-01-17T23:16:15.195Z,1.45
2023-01-17T23:19:24.991Z,1.33
2023-01-17T23:22:30.167Z,1.08
2023-01-17T23:25:33.745Z,1.30
2023-01-17T23:28:37.115Z,1.20
2023-01-17T23:31:40.884Z,1.30
2023-01-17T23:34:44.054Z,1.30
2023-01-17T23:38:06.905Z,1.20
2023-01-17T23:41:28.905Z,1.33
2023-01-17T23:44:32.273Z,1.40
2023-01-17T23:47:35.410Z,1.40
2023-01-17T23:50:40.854Z,1.27
2023-01-17T23:53:45.320Z,1.27
2023-01-17T23:56:49.100Z,1.52
2023-01-17T23:59:52.820Z,1.30
